Ferry Kyoto II — JI3701 — position and weather

sailwx.info

Track history (hours):
 
Tides and Currents Weather Stations Pressure Air Temp Water Temp Dewpoint Dewpoint Depression Visibility Wind Speed Wind Dir Waves Ship Positions

Ferry Kyoto II

Last reported at 2016-Jun-26 09:33 UTC. Time now 2016-Jun-26 15:31 UTC.
Position N 34°36' E 134°55'.

Length 167 m; draft 5.9 m.

Type: Passenger vessel. MMSI: 431301641.

Date/timePositionNaut miles runAvg speedWind from/ knotsBaromVisibWave heightAir tempDewpointWater temp
2016-Jun-26 09:33N 34°36' E 134°55'1919.5
2016-Jun-26 08:33N 34°36' E 135°18'6 5.4
2016-Jun-26 07:23N 34°37' E 135°26'0 0.0
2016-Jun-26 06:29N 34°37' E 135°26'0 0.0
2016-Jun-26 05:29N 34°37' E 135°26'0 0.0
2016-Jun-26 04:29N 34°37' E 135°26'0 0.0
2016-Jun-26 03:29N 34°37' E 135°26'0 0.0
2016-Jun-26 02:29N 34°37' E 135°26'0 0.0
2016-Jun-26 01:29N 34°37' E 135°26'0 0.0
2016-Jun-26 00:29N 34°37' E 135°26'0 0.0
2016-Jun-25 23:29N 34°37' E 135°26'0 0.0
2016-Jun-25 22:29N 34°37' E 135°26'0 0.0
2016-Jun-25 21:29N 34°37' E 135°26'0 0.0
2016-Jun-25 20:30N 34°37' E 135°26'1111.2
2016-Jun-25 19:33N 34°35' E 135°13'2019.6
2016-Jun-25 18:33N 34°33' E 134°50'5 0.1
2016-Jun-24 09:33N 34°36' E 134°54'1919.6
2016-Jun-24 08:33N 34°37' E 135°18'7 6.9
2016-Jun-24 07:33N 34°37' E 135°26'0 0.0
2016-Jun-24 04:30N 34°37' E 135°26'0 0.0
2016-Jun-24 03:30N 34°37' E 135°26'0 0.0
2016-Jun-24 02:18N 34°37' E 135°26'0 0.0
2016-Jun-24 01:30N 34°37' E 135°26'0 0.0
2016-Jun-24 00:24N 34°37' E 135°26'3 3.8
2016-Jun-23 23:34N 34°37' E 135°22'4 4.0
2016-Jun-23 22:32N 34°36' E 135°17'0 0.0
2016-Jun-23 21:32N 34°36' E 135°17'0 0.0
2016-Jun-23 20:26N 34°36' E 135°17'0 0.0
2016-Jun-23 19:32N 34°36' E 135°17'0 0.0
2016-Jun-23 18:32N 34°36' E 135°17'0 0.0
2016-Jun-23 17:32N 34°36' E 135°17'0 0.0
2016-Jun-23 16:33N 34°36' E 135°17'1010.4
2016-Jun-23 15:33N 34°35' E 135°05'1514.5
2016-Jun-23 14:32N 34°32' E 134°47'  
Track history (hours):
 
Tides and Currents Weather Stations Pressure Air Temp Water Temp Dewpoint Dewpoint Depression Visibility Wind Speed Wind Dir Waves Ship Positions

Ferry Kyoto II

Last reported at 2016-Jun-26 09:33 UTC. Time now 2016-Jun-26 15:31 UTC.
Position N 34°36' E 134°55'.

Length 167 m; draft 5.9 m.

Type: Passenger vessel. MMSI: 431301641.

Date/timePositionNaut miles runAvg speedWind from/ knotsBaromVisibWave heightAir tempDewpointWater temp
2016-Jun-26 09:33N 34°36' E 134°55'1919.5
2016-Jun-26 08:33N 34°36' E 135°18'6 5.4
2016-Jun-26 07:23N 34°37' E 135°26'0 0.0
2016-Jun-26 06:29N 34°37' E 135°26'0 0.0
2016-Jun-26 05:29N 34°37' E 135°26'0 0.0
2016-Jun-26 04:29N 34°37' E 135°26'0 0.0
2016-Jun-26 03:29N 34°37' E 135°26'0 0.0
2016-Jun-26 02:29N 34°37' E 135°26'0 0.0
2016-Jun-26 01:29N 34°37' E 135°26'0 0.0
2016-Jun-26 00:29N 34°37' E 135°26'0 0.0
2016-Jun-25 23:29N 34°37' E 135°26'0 0.0
2016-Jun-25 22:29N 34°37' E 135°26'0 0.0
2016-Jun-25 21:29N 34°37' E 135°26'0 0.0
2016-Jun-25 20:30N 34°37' E 135°26'1111.2
2016-Jun-25 19:33N 34°35' E 135°13'2019.6
2016-Jun-25 18:33N 34°33' E 134°50'5 0.1
2016-Jun-24 09:33N 34°36' E 134°54'1919.6
2016-Jun-24 08:33N 34°37' E 135°18'7 6.9
2016-Jun-24 07:33N 34°37' E 135°26'0 0.0
2016-Jun-24 04:30N 34°37' E 135°26'0 0.0
2016-Jun-24 03:30N 34°37' E 135°26'0 0.0
2016-Jun-24 02:18N 34°37' E 135°26'0 0.0
2016-Jun-24 01:30N 34°37' E 135°26'0 0.0
2016-Jun-24 00:24N 34°37' E 135°26'3 3.8
2016-Jun-23 23:34N 34°37' E 135°22'4 4.0
2016-Jun-23 22:32N 34°36' E 135°17'0 0.0
2016-Jun-23 21:32N 34°36' E 135°17'0 0.0
2016-Jun-23 20:26N 34°36' E 135°17'0 0.0
2016-Jun-23 19:32N 34°36' E 135°17'0 0.0
2016-Jun-23 18:32N 34°36' E 135°17'0 0.0
2016-Jun-23 17:32N 34°36' E 135°17'0 0.0
2016-Jun-23 16:33N 34°36' E 135°17'1010.4
2016-Jun-23 15:33N 34°35' E 135°05'1514.5
2016-Jun-23 14:32N 34°32' E 134°47'  

Dump ship's entire track history